createdAt,value
2019-01-15T00:02:20.619Z,8.00
2019-01-15T00:04:49.054Z,7.50
2019-01-15T00:07:17.496Z,7.63
2019-01-15T00:09:45.947Z,8.10
2019-01-15T00:12:14.498Z,7.60
2019-01-15T00:14:42.975Z,7.73
2019-01-15T00:17:11.510Z,8.70
2019-01-15T00:19:40.003Z,7.60
2019-01-15T00:22:08.628Z,7.93
2019-01-15T00:24:37.038Z,8.60
2019-01-15T00:27:05.492Z,8.50
2019-01-15T00:29:33.952Z,8.33
2019-01-15T00:32:02.455Z,8.73
2019-01-15T00:34:30.944Z,8.00
2019-01-15T00:36:59.620Z,8.13
2019-01-15T00:39:28.056Z,7.93
2019-01-15T00:41:56.510Z,6.67
2019-01-15T00:44:24.934Z,7.70
2019-01-15T00:46:53.345Z,7.33
2019-01-15T00:49:21.808Z,7.17
2019-01-15T00:51:50.242Z,7.57
2019-01-15T00:54:18.681Z,7.67
2019-01-15T00:56:47.167Z,6.30
2019-01-15T00:59:15.611Z,6.83
2019-01-15T01:01:44.261Z,7.40
2019-01-15T01:04:12.700Z,7.40
2019-01-15T01:06:41.130Z,7.10
2019-01-15T01:09:11.141Z,7.03
2019-01-15T01:11:39.995Z,6.77
2019-01-15T01:14:08.578Z,7.10
2019-01-15T01:16:37.010Z,7.43
2019-01-15T01:19:05.571Z,7.40
2019-01-15T01:21:34.070Z,6.57
2019-01-15T01:24:02.491Z,7.43
2019-01-15T01:26:31.001Z,7.63
2019-01-15T01:28:59.492Z,7.07
2019-01-15T01:31:28.011Z,6.77
2019-01-15T01:33:56.414Z,6.83
2019-01-15T01:36:24.867Z,7.60
2019-01-15T01:38:53.289Z,7.40
2019-01-15T01:41:21.746Z,7.10
2019-01-15T01:43:50.333Z,6.93
2019-01-15T01:46:18.843Z,8.33
2019-01-15T01:48:47.275Z,7.30
2019-01-15T01:51:16.199Z,7.73
2019-01-15T01:53:47.420Z,8.20
2019-01-15T01:56:15.867Z,8.47
2019-01-15T01:58:44.303Z,7.97
2019-01-15T02:01:12.813Z,7.80
2019-01-15T02:03:41.256Z,9.10
2019-01-15T02:06:09.756Z,8.83
2019-01-15T02:08:38.275Z,8.20
2019-01-15T02:11:06.732Z,8.60
2019-01-15T02:13:35.156Z,9.17
2019-01-15T02:16:03.655Z,8.93
2019-01-15T02:18:32.103Z,8.70
2019-01-15T02:21:00.589Z,9.53
2019-01-15T02:23:29.035Z,8.60
2019-01-15T02:25:57.474Z,8.80
2019-01-15T02:28:25.915Z,9.13
2019-01-15T02:30:54.890Z,8.83
2019-01-15T02:33:25.039Z,9.60
2019-01-15T02:35:53.458Z,8.50
2019-01-15T02:38:21.940Z,9.57
2019-01-15T02:40:50.363Z,9.63
2019-01-15T02:43:18.837Z,9.40
2019-01-15T02:45:47.256Z,9.43
2019-01-15T02:48:15.707Z,8.77
2019-01-15T02:50:44.142Z,9.37
2019-01-15T02:53:12.644Z,9.43
2019-01-15T02:55:41.068Z,10.07
2019-01-15T02:58:09.567Z,9.73
2019-01-15T03:00:38.041Z,8.70
2019-01-15T03:03:06.715Z,9.37
2019-01-15T03:05:35.127Z,8.07
2019-01-15T03:08:03.727Z,8.60
2019-01-15T03:10:32.207Z,9.20
2019-01-15T03:13:00.798Z,9.50
2019-01-15T03:15:29.210Z,8.30
2019-01-15T03:17:57.633Z,9.90
2019-01-15T03:20:26.144Z,8.67
2019-01-15T03:22:54.598Z,8.80
2019-01-15T03:25:23.115Z,8.53
2019-01-15T03:27:51.614Z,8.70
2019-01-15T03:30:22.245Z,7.67
2019-01-15T03:32:50.792Z,8.20
2019-01-15T03:35:19.395Z,8.27
2019-01-15T03:37:47.814Z,7.77
2019-01-15T03:40:21.994Z,7.23
2019-01-15T03:42:50.544Z,7.27
2019-01-15T03:45:19.014Z,7.17
2019-01-15T03:47:47.420Z,7.37
2019-01-15T03:50:16.092Z,8.30
2019-01-15T03:52:44.574Z,7.23
2019-01-15T03:55:14.743Z,7.97
2019-01-15T03:57:43.803Z,7.00
2019-01-15T04:00:15.335Z,8.97
2019-01-15T04:02:44.500Z,8.10
2019-01-15T04:05:13.764Z,7.90
2019-01-15T04:07:43.136Z,8.10
2019-01-15T04:10:12.091Z,8.37
2019-01-15T04:12:40.603Z,9.93
2019-01-15T04:15:13.289Z,8.83
2019-01-15T04:17:42.163Z,9.17
2019-01-15T04:20:17.659Z,9.80
2019-01-15T04:22:46.602Z,9.67
2019-01-15T04:25:15.890Z,9.93
2019-01-15T04:27:44.492Z,10.00
2019-01-15T04:30:15.788Z,11.13
2019-01-15T04:32:44.366Z,11.43
2019-01-15T04:35:13.027Z,12.97
2019-01-15T04:37:41.484Z,12.43
2019-01-15T04:40:13.157Z,12.83
2019-01-15T04:42:41.612Z,13.23
2019-01-15T04:45:13.055Z,13.03
2019-01-15T04:47:41.563Z,13.67
2019-01-15T04:50:10.995Z,13.23
2019-01-15T04:52:41.277Z,13.80
2019-01-15T04:55:11.507Z,13.83
2019-01-15T04:57:40.025Z,14.73
2019-01-15T05:00:14.383Z,12.73
2019-01-15T05:02:43.128Z,13.87
2019-01-15T05:05:13.684Z,14.03
2019-01-15T05:07:42.192Z,13.57
2019-01-15T05:10:15.381Z,13.70
2019-01-15T05:12:43.829Z,13.10
2019-01-15T05:15:14.479Z,12.70
2019-01-15T05:17:43.004Z,14.00
2019-01-15T05:20:17.016Z,13.23
2019-01-15T05:22:45.513Z,13.27
2019-01-15T05:25:19.151Z,13.20
2019-01-15T05:27:47.616Z,13.60
2019-01-15T05:30:23.959Z,13.80
2019-01-15T05:32:52.712Z,12.73
2019-01-15T05:35:21.234Z,12.97
2019-01-15T05:37:49.665Z,14.17
2019-01-15T05:40:18.358Z,13.03
2019-01-15T05:42:46.845Z,13.97
2019-01-15T05:45:18.963Z,13.13
2019-01-15T05:47:48.261Z,12.70
2019-01-15T05:50:18.417Z,13.60
2019-01-15T05:52:46.842Z,12.33
2019-01-15T05:55:15.463Z,13.60
2019-01-15T05:57:43.909Z,13.40
2019-01-15T06:00:17.048Z,15.20
2019-01-15T06:02:45.433Z,13.23
2019-01-15T06:05:14.519Z,13.87
2019-01-15T06:07:42.997Z,14.00
2019-01-15T06:10:13.840Z,12.73
2019-01-15T06:12:42.423Z,13.13
2019-01-15T06:15:13.339Z,13.47
2019-01-15T06:17:41.774Z,14.87
2019-01-15T06:20:13.281Z,17.60
2019-01-15T06:22:41.796Z,13.67
2019-01-15T06:25:11.056Z,34.20
2019-01-15T06:27:39.565Z,13.23
2019-01-15T06:30:13.731Z,13.07
2019-01-15T06:32:42.355Z,13.07
2019-01-15T06:35:11.104Z,13.53
2019-01-15T06:37:39.616Z,12.77
2019-01-15T06:40:20.405Z,12.40
2019-01-15T06:42:49.187Z,13.43
2019-01-15T06:45:23.490Z,14.23
2019-01-15T06:47:52.006Z,12.77
2019-01-15T06:50:20.575Z,12.53
2019-01-15T06:52:49.120Z,12.93
2019-01-15T06:55:19.986Z,13.87
2019-01-15T06:57:48.499Z,13.43
2019-01-15T07:00:28.570Z,13.00
2019-01-15T07:02:57.557Z,13.80
2019-01-15T07:05:26.069Z,13.73
2019-01-15T07:07:54.592Z,13.77
2019-01-15T07:10:31.767Z,12.87
2019-01-15T07:13:00.334Z,14.43
2019-01-15T07:15:28.821Z,14.60
2019-01-15T07:17:57.335Z,14.90
2019-01-15T07:20:26.307Z,14.20
2019-01-15T07:22:54.844Z,13.80
2019-01-15T07:25:26.245Z,15.33
2019-01-15T07:27:54.685Z,15.37
2019-01-15T07:30:26.176Z,14.60
2019-01-15T07:32:55.418Z,15.60
2019-01-15T07:35:24.050Z,16.00
2019-01-15T07:37:52.610Z,16.17
2019-01-15T07:40:21.130Z,17.27
2019-01-15T07:42:49.552Z,16.30
2019-01-15T07:45:18.437Z,17.97
2019-01-15T07:47:46.927Z,18.10
2019-01-15T07:50:20.369Z,17.53
2019-01-15T07:52:49.635Z,18.47
2019-01-15T07:55:19.997Z,16.90
2019-01-15T07:57:48.418Z,16.97
2019-01-15T08:00:26.632Z,17.67
2019-01-15T08:02:55.503Z,16.07
2019-01-15T08:05:28.405Z,18.87
2019-01-15T08:07:57.071Z,18.20
2019-01-15T08:10:25.598Z,16.97
2019-01-15T08:12:54.153Z,15.83
2019-01-15T08:15:27.738Z,16.60
2019-01-15T08:17:56.311Z,16.03
2019-01-15T08:20:24.883Z,17.53
2019-01-15T08:22:53.463Z,17.30
2019-01-15T08:25:21.958Z,17.87
2019-01-15T08:27:50.509Z,17.03
2019-01-15T08:30:27.474Z,17.07
2019-01-15T08:32:56.074Z,18.33
2019-01-15T08:35:24.842Z,17.27
2019-01-15T08:37:53.286Z,17.33
2019-01-15T08:40:21.842Z,17.20
2019-01-15T08:42:50.268Z,17.07
2019-01-15T08:45:19.332Z,17.37
2019-01-15T08:47:50.262Z,17.27
2019-01-15T08:50:21.236Z,16.63
2019-01-15T08:52:50.112Z,16.50
2019-01-15T08:55:18.542Z,16.83
2019-01-15T08:57:47.005Z,16.33
2019-01-15T09:00:15.860Z,17.50
2019-01-15T09:02:44.378Z,16.50
2019-01-15T09:05:13.155Z,16.67
2019-01-15T09:07:41.583Z,16.63
2019-01-15T09:10:15.295Z,16.70
2019-01-15T09:12:44.046Z,16.87
2019-01-15T09:15:20.979Z,16.00
2019-01-15T09:17:49.494Z,15.97
2019-01-15T09:20:19.907Z,15.40
2019-01-15T09:22:48.472Z,15.07
2019-01-15T09:25:17.065Z,15.57
2019-01-15T09:27:45.607Z,15.53
2019-01-15T09:30:16.385Z,14.90
2019-01-15T09:32:44.967Z,15.13
2019-01-15T09:35:13.645Z,14.83
2019-01-15T09:37:42.612Z,14.33
2019-01-15T09:40:13.967Z,16.30
2019-01-15T09:42:42.460Z,14.13
2019-01-15T09:45:14.123Z,14.87
2019-01-15T09:47:44.357Z,12.47
2019-01-15T09:50:13.433Z,12.93
2019-01-15T09:52:42.374Z,12.63
2019-01-15T09:55:10.889Z,12.47
2019-01-15T09:57:39.404Z,11.40
2019-01-15T10:00:16.503Z,11.70
2019-01-15T10:02:44.946Z,12.13
2019-01-15T10:05:13.514Z,12.80
2019-01-15T10:07:41.991Z,11.57
2019-01-15T10:10:13.320Z,11.37
2019-01-15T10:12:41.913Z,10.87
2019-01-15T10:15:21.759Z,11.53
2019-01-15T10:17:50.387Z,10.50
2019-01-15T10:20:19.459Z,10.60
2019-01-15T10:22:48.961Z,11.43
2019-01-15T10:25:27.993Z,10.80
2019-01-15T10:27:57.634Z,11.00
2019-01-15T10:30:39.882Z,9.93
2019-01-15T10:33:14.266Z,10.27
2019-01-15T10:35:54.694Z,10.37
2019-01-15T10:38:28.935Z,9.20
2019-01-15T10:40:58.094Z,9.50
2019-01-15T10:43:27.470Z,8.50
2019-01-15T10:45:56.069Z,9.33
2019-01-15T10:48:24.849Z,7.83
2019-01-15T10:50:53.526Z,8.53
2019-01-15T10:53:22.152Z,8.23
2019-01-15T10:55:50.604Z,8.33
2019-01-15T10:58:19.081Z,7.27
2019-01-15T11:00:47.598Z,6.40
2019-01-15T11:03:16.024Z,6.07
2019-01-15T11:05:44.790Z,6.93
2019-01-15T11:08:13.279Z,6.20
2019-01-15T11:10:41.769Z,5.63
2019-01-15T11:13:10.335Z,5.50
2019-01-15T11:15:43.095Z,5.47
2019-01-15T11:18:09.123Z,5.83
2019-01-15T11:20:37.718Z,5.80
2019-01-15T11:23:06.295Z,5.37
2019-01-15T11:25:34.820Z,5.00
2019-01-15T11:28:04.914Z,5.10
2019-01-15T11:30:33.415Z,4.57
2019-01-15T11:33:01.841Z,4.77
2019-01-15T11:35:30.566Z,4.23
2019-01-15T11:37:58.983Z,4.00
2019-01-15T11:40:27.417Z,3.80
2019-01-15T11:42:55.911Z,3.57
2019-01-15T11:45:24.604Z,4.50
2019-01-15T11:47:53.363Z,3.17
2019-01-15T11:50:23.383Z,3.57
2019-01-15T11:52:51.972Z,4.23
2019-01-15T11:55:21.365Z,3.67
2019-01-15T11:57:51.015Z,3.23
2019-01-15T12:00:38.630Z,3.83
2019-01-15T12:03:11.812Z,3.70
2019-01-15T12:05:41.996Z,3.70
2019-01-15T12:08:28.159Z,3.70
2019-01-15T12:11:00.662Z,3.77
2019-01-15T12:13:42.464Z,3.20
2019-01-15T12:16:12.545Z,3.60
2019-01-15T12:18:51.364Z,4.27
2019-01-15T12:21:21.480Z,3.73
2019-01-15T12:24:07.475Z,4.03
2019-01-15T12:26:37.699Z,3.73
2019-01-15T12:29:24.389Z,55.47
2019-01-15T12:31:54.487Z,8.33
2019-01-15T12:34:40.771Z,4.23
2019-01-15T12:37:26.844Z,3.90
2019-01-15T12:40:06.853Z,4.13
2019-01-15T12:42:53.200Z,3.40
2019-01-15T12:45:32.734Z,3.70
2019-01-15T12:48:19.559Z,3.37
2019-01-15T12:50:49.850Z,3.17
2019-01-15T12:53:36.587Z,3.00
2019-01-15T12:56:19.289Z,4.40
2019-01-15T12:58:49.383Z,3.83
2019-01-15T13:01:35.913Z,3.20
2019-01-15T13:04:21.195Z,3.67
2019-01-15T13:06:51.333Z,3.70
2019-01-15T13:09:24.069Z,3.97
2019-01-15T13:11:57.093Z,3.30
2019-01-15T13:14:42.024Z,3.30
2019-01-15T13:17:27.301Z,4.20
2019-01-15T13:19:57.437Z,3.90
2019-01-15T13:22:28.452Z,3.30
2019-01-15T13:25:16.659Z,3.80
2019-01-15T13:27:49.411Z,4.10
2019-01-15T13:30:19.646Z,4.03
2019-01-15T13:32:55.773Z,3.33
2019-01-15T13:35:31.922Z,3.80
2019-01-15T13:38:01.986Z,3.87
2019-01-15T13:40:35.094Z,3.60
2019-01-15T13:43:23.707Z,3.63
2019-01-15T13:46:00.705Z,3.40
2019-01-15T13:48:28.801Z,3.53
2019-01-15T13:51:07.880Z,3.93
2019-01-15T13:53:41.332Z,4.03
2019-01-15T13:56:27.683Z,3.77
2019-01-15T13:59:03.671Z,4.00
2019-01-15T14:01:48.915Z,3.67
2019-01-15T14:04:27.714Z,4.80
2019-01-15T14:07:14.520Z,4.20
2019-01-15T14:09:59.749Z,3.80
2019-01-15T14:12:41.608Z,3.93
2019-01-15T14:15:11.992Z,3.67
2019-01-15T14:17:44.568Z,3.77
2019-01-15T14:20:31.324Z,3.57
2019-01-15T14:23:16.377Z,4.37
2019-01-15T14:25:49.214Z,4.23
2019-01-15T14:28:31.297Z,4.30
2019-01-15T14:31:01.443Z,4.00
2019-01-15T14:33:34.567Z,4.27
2019-01-15T14:36:16.646Z,4.97
2019-01-15T14:38:46.863Z,4.53
2019-01-15T14:41:16.922Z,4.33
2019-01-15T14:43:53.123Z,4.40
2019-01-15T14:46:39.741Z,4.80
2019-01-15T14:49:12.932Z,4.20
2019-01-15T14:51:59.799Z,4.13
2019-01-15T14:54:38.848Z,4.17
2019-01-15T14:57:17.992Z,4.33
2019-01-15T14:59:48.098Z,4.50
2019-01-15T15:02:33.518Z,4.33
2019-01-15T15:05:19.936Z,5.60
2019-01-15T15:07:59.007Z,4.13
2019-01-15T15:10:29.087Z,4.47
2019-01-15T15:12:59.241Z,4.20
2019-01-15T15:15:29.494Z,4.67
2019-01-15T15:18:11.629Z,4.67
2019-01-15T15:20:51.049Z,4.63
2019-01-15T15:23:21.189Z,4.57
2019-01-15T15:26:00.022Z,4.57
2019-01-15T15:28:36.098Z,4.53
2019-01-15T15:31:10.951Z,4.53
2019-01-15T15:33:45.263Z,4.73
2019-01-15T15:36:30.681Z,4.60
2019-01-15T15:39:15.735Z,5.10
2019-01-15T15:41:45.811Z,4.97
2019-01-15T15:44:31.293Z,4.63
2019-01-15T15:47:17.805Z,4.97
2019-01-15T15:50:03.945Z,5.10
2019-01-15T15:52:46.585Z,5.40
2019-01-15T15:55:35.032Z,4.83
2019-01-15T15:58:14.664Z,5.00
2019-01-15T16:00:47.556Z,4.53
2019-01-15T16:03:36.193Z,5.10
2019-01-15T16:06:09.727Z,5.37
2019-01-15T16:08:39.929Z,4.27
2019-01-15T16:11:15.726Z,5.20
2019-01-15T16:13:54.979Z,5.50
2019-01-15T16:16:40.072Z,5.80
2019-01-15T16:19:10.164Z,5.00
2019-01-15T16:21:46.169Z,4.60
2019-01-15T16:24:32.984Z,5.07
2019-01-15T16:27:18.168Z,5.60
2019-01-15T16:29:48.310Z,5.70
2019-01-15T16:32:18.365Z,5.63
2019-01-15T16:34:51.321Z,5.50
2019-01-15T16:37:27.399Z,5.83
2019-01-15T16:40:09.277Z,6.17
2019-01-15T16:42:48.391Z,6.17
2019-01-15T16:45:30.778Z,5.63
2019-01-15T16:48:12.638Z,5.57
2019-01-15T16:50:49.149Z,6.07
2019-01-15T16:53:22.163Z,5.93
2019-01-15T16:55:58.680Z,5.83
2019-01-15T16:58:34.104Z,6.23
2019-01-15T17:01:20.667Z,6.33
2019-01-15T17:03:50.881Z,5.10
2019-01-15T17:06:27.075Z,6.20
2019-01-15T17:09:03.242Z,5.17
2019-01-15T17:11:51.217Z,5.47
2019-01-15T17:14:24.421Z,5.63
2019-01-15T17:16:54.465Z,5.33
2019-01-15T17:19:27.249Z,5.37
2019-01-15T17:22:13.484Z,5.30
2019-01-15T17:24:49.406Z,5.37
2019-01-15T17:27:19.581Z,5.07
2019-01-15T17:30:08.052Z,5.43
2019-01-15T17:32:38.150Z,5.27
2019-01-15T17:35:11.617Z,5.57
2019-01-15T17:37:50.723Z,5.70
2019-01-15T17:40:37.046Z,5.70
2019-01-15T17:43:13.412Z,5.37
2019-01-15T17:45:46.473Z,5.53
2019-01-15T17:48:17.389Z,5.63
2019-01-15T17:51:03.718Z,5.80
2019-01-15T17:53:39.622Z,6.03
2019-01-15T17:56:12.851Z,5.90
2019-01-15T17:58:55.168Z,6.40
2019-01-15T18:01:37.562Z,6.10
2019-01-15T18:04:23.529Z,6.50
2019-01-15T18:07:10.011Z,7.00
2019-01-15T18:09:40.123Z,6.30
2019-01-15T18:12:19.002Z,6.20
2019-01-15T18:14:49.167Z,6.63
2019-01-15T18:17:19.572Z,6.77
2019-01-15T18:20:04.640Z,6.60
2019-01-15T18:22:34.775Z,6.03
2019-01-15T18:25:07.904Z,6.30
2019-01-15T18:27:49.669Z,6.43
2019-01-15T18:30:35.906Z,6.40
2019-01-15T18:33:23.513Z,6.40
2019-01-15T18:35:56.656Z,6.30
2019-01-15T18:38:26.872Z,5.63
2019-01-15T18:41:02.812Z,6.07
2019-01-15T18:43:50.883Z,6.10
2019-01-15T18:46:24.147Z,6.00
2019-01-15T18:48:57.741Z,5.83
2019-01-15T18:51:27.906Z,6.27
2019-01-15T18:54:14.249Z,5.77
2019-01-15T18:56:47.201Z,6.13
2019-01-15T18:59:33.699Z,6.47
2019-01-15T19:02:20.159Z,5.93
2019-01-15T19:04:50.280Z,5.33
2019-01-15T19:07:23.137Z,5.70
2019-01-15T19:10:09.709Z,6.57
2019-01-15T19:12:46.032Z,5.80
2019-01-15T19:15:25.668Z,5.83
2019-01-15T19:18:12.047Z,6.03
2019-01-15T19:20:58.624Z,6.13
2019-01-15T19:23:28.874Z,6.27
2019-01-15T19:26:17.497Z,6.47
2019-01-15T19:29:04.092Z,6.07
2019-01-15T19:31:49.023Z,7.03
2019-01-15T19:34:37.459Z,5.00
2019-01-15T19:37:19.872Z,5.10
2019-01-15T19:39:53.071Z,6.17
2019-01-15T19:42:23.138Z,5.30
2019-01-15T19:44:53.414Z,5.80
2019-01-15T19:47:38.329Z,6.97
2019-01-15T19:50:23.078Z,5.67
2019-01-15T19:53:09.734Z,6.10
2019-01-15T19:55:39.943Z,6.53
2019-01-15T19:58:10.309Z,6.43
2019-01-15T20:00:46.306Z,6.37
2019-01-15T20:03:32.665Z,7.10
2019-01-15T20:06:03.603Z,6.50
2019-01-15T20:08:39.529Z,7.17
2019-01-15T20:11:26.069Z,6.57
2019-01-15T20:13:59.372Z,7.53
2019-01-15T20:16:29.511Z,7.07
2019-01-15T20:19:02.446Z,7.40
2019-01-15T20:21:53.137Z,7.43
2019-01-15T20:24:28.699Z,7.10
2019-01-15T20:27:01.456Z,7.10
2019-01-15T20:29:40.330Z,7.00
2019-01-15T20:32:16.626Z,7.53
2019-01-15T20:34:55.435Z,7.00
2019-01-15T20:37:28.625Z,6.80
2019-01-15T20:40:07.670Z,6.73
2019-01-15T20:42:37.893Z,7.53
2019-01-15T20:45:15.560Z,6.93
2019-01-15T20:48:03.678Z,7.63
2019-01-15T20:50:40.115Z,6.83
2019-01-15T20:53:10.286Z,6.93
2019-01-15T20:55:56.926Z,7.53
2019-01-15T20:58:35.867Z,6.90
2019-01-15T21:01:08.840Z,7.40
2019-01-15T21:03:44.969Z,7.10
2019-01-15T21:06:18.214Z,6.50
2019-01-15T21:08:57.689Z,7.37
2019-01-15T21:11:44.239Z,7.13
2019-01-15T21:14:20.479Z,6.70
2019-01-15T21:17:07.093Z,7.07
2019-01-15T21:19:37.210Z,6.90
2019-01-15T21:22:25.516Z,7.53
2019-01-15T21:25:01.954Z,6.90
2019-01-15T21:27:44.351Z,7.80
2019-01-15T21:30:21.404Z,9.07
2019-01-15T21:33:03.910Z,7.90
2019-01-15T21:35:37.016Z,7.17
2019-01-15T21:38:22.415Z,7.20
2019-01-15T21:40:58.612Z,7.07
2019-01-15T21:43:28.805Z,8.73
2019-01-15T21:46:04.961Z,7.63
2019-01-15T21:48:51.572Z,8.80
2019-01-15T21:51:27.829Z,8.50
2019-01-15T21:54:07.206Z,7.47
2019-01-15T21:56:53.525Z,8.40
2019-01-15T21:59:32.666Z,8.23
2019-01-15T22:02:20.758Z,8.63
2019-01-15T22:05:02.476Z,8.50
2019-01-15T22:07:41.548Z,8.70
2019-01-15T22:10:14.584Z,9.00
2019-01-15T22:12:53.624Z,8.13
2019-01-15T22:15:23.827Z,9.00
2019-01-15T22:17:54.075Z,8.97
2019-01-15T22:20:39.561Z,9.30
2019-01-15T22:23:12.706Z,9.53
2019-01-15T22:25:59.187Z,10.00
2019-01-15T22:28:34.986Z,9.77
2019-01-15T22:31:08.085Z,8.90
2019-01-15T22:33:43.913Z,10.07
2019-01-15T22:36:19.851Z,9.07
2019-01-15T22:38:50.026Z,9.70
2019-01-15T22:41:32.015Z,10.30
2019-01-15T22:44:10.831Z,9.77
2019-01-15T22:46:57.387Z,9.67
2019-01-15T22:49:30.506Z,9.57
2019-01-15T22:52:16.815Z,10.27
2019-01-15T22:54:46.909Z,8.47
2019-01-15T22:57:26.059Z,10.23
2019-01-15T23:00:12.379Z,10.13
2019-01-15T23:02:45.478Z,9.37
2019-01-15T23:05:24.241Z,10.73
2019-01-15T23:07:54.430Z,9.93
2019-01-15T23:10:33.873Z,10.07
2019-01-15T23:13:09.804Z,9.50
2019-01-15T23:15:39.862Z,9.27
2019-01-15T23:18:10.111Z,10.60
2019-01-15T23:20:43.110Z,10.03
2019-01-15T23:23:21.902Z,9.30
2019-01-15T23:25:54.896Z,9.77
2019-01-15T23:28:28.124Z,9.27
2019-01-15T23:31:15.064Z,8.83
2019-01-15T23:33:57.304Z,9.80
2019-01-15T23:36:30.589Z,9.63
2019-01-15T23:39:00.761Z,10.17
2019-01-15T23:41:37.362Z,8.70
2019-01-15T23:44:23.780Z,10.37
2019-01-15T23:46:59.622Z,10.63
2019-01-15T23:49:38.952Z,10.83
2019-01-15T23:52:25.762Z,11.13
2019-01-15T23:55:08.090Z,11.03
2019-01-15T23:57:47.179Z,10.40
